Time;durP1;ratioP1;P1;durP2;ratioP2;P2;SDS_P1;SDS_P2;PMS_P1;PMS_P2;Temp;Humidity;BMP_temperature;BMP_pressure;BME280_temperature;BME280_humidity;BME280_pressure;Samples;Min_cycle;Max_cycle;Signal;HPM_P1;HPM_P2
2023/04/19 00:01:43;;;;;;;565.83;245.25;;;;;;;;;;4964439;28;20286;-57
2023/04/19 00:04:08;;;;;;;549.97;250.40;;;;;;;;;;4963655;28;20133;-58
2023/04/19 00:06:34;;;;;;;584.53;249.63;;;;;;;;;;4966247;28;20272;-59
2023/04/19 00:08:59;;;;;;;562.25;246.32;;;;;;;;;;4965850;28;20018;-56
2023/04/19 00:11:24;;;;;;;576.25;254.48;;;;;;;;;;4965427;28;20050;-58
2023/04/19 00:13:50;;;;;;;683.22;257.83;;;;;;;;;;4963947;28;20033;-60
2023/04/19 00:16:15;;;;;;;555.72;256.85;;;;;;;;;;4964902;28;20086;-57
2023/04/19 00:18:41;;;;;;;542.85;245.23;;;;;;;;;;4965744;28;20369;-60
2023/04/19 00:21:06;;;;;;;588.95;249.07;;;;;;;;;;4963903;28;20513;-57
2023/04/19 00:23:32;;;;;;;603.70;251.73;;;;;;;;;;4962776;28;20457;-58
2023/04/19 00:25:57;;;;;;;566.13;256.52;;;;;;;;;;4961839;28;20070;-58
2023/04/19 00:28:23;;;;;;;573.20;255.80;;;;;;;;;;4964584;28;20049;-58
2023/04/19 00:30:48;;;;;;;532.65;248.60;;;;;;;;;;4964661;28;20038;-59
2023/04/19 00:33:14;;;;;;;578.92;258.52;;;;;;;;;;4964132;28;20049;-60
2023/04/19 00:35:40;;;;;;;534.10;248.93;;;;;;;;;;4963437;28;20565;-58
2023/04/19 00:38:06;;;;;;;518.08;252.95;;;;;;;;;;4963944;28;20019;-59
2023/04/19 00:40:31;;;;;;;576.90;256.92;;;;;;;;;;4962019;28;20092;-59
2023/04/19 00:42:56;;;;;;;547.25;252.52;;;;;;;;;;4965820;28;20234;-57
2023/04/19 00:45:21;;;;;;;556.00;242.63;;;;;;;;;;4962492;28;20023;-57
2023/04/19 00:47:47;;;;;;;570.80;258.83;;;;;;;;;;4962618;28;20486;-57
2023/04/19 00:50:12;;;;;;;541.78;257.40;;;;;;;;;;4964136;28;20068;-60
2023/04/19 00:52:38;;;;;;;567.20;258.30;;;;;;;;;;4964605;28;20622;-60
2023/04/19 00:55:03;;;;;;;525.55;262.48;;;;;;;;;;4963116;28;20111;-60
2023/04/19 00:57:28;;;;;;;565.13;267.65;;;;;;;;;;4962388;28;20125;-57
2023/04/19 00:59:54;;;;;;;603.10;264.17;;;;;;;;;;4966307;28;20018;-60
2023/04/19 01:02:20;;;;;;;569.92;262.52;;;;;;;;;;4964792;28;20050;-59
2023/04/19 01:04:46;;;;;;;558.83;264.83;;;;;;;;;;4964119;28;20023;-60
2023/04/19 01:07:12;;;;;;;546.85;258.30;;;;;;;;;;4964727;28;20095;-59
2023/04/19 01:09:41;;;;;;;526.45;244.98;;;;;;;;;;4965115;28;20142;-60
2023/04/19 01:12:07;;;;;;;562.38;251.07;;;;;;;;;;4963294;28;20042;-59
2023/04/19 01:14:32;;;;;;;531.58;254.25;;;;;;;;;;4965081;28;20461;-57
2023/04/19 01:16:57;;;;;;;552.30;235.93;;;;;;;;;;4963786;28;20042;-60
2023/04/19 01:19:22;;;;;;;556.22;238.25;;;;;;;;;;4964196;28;20026;-59
2023/04/19 01:21:48;;;;;;;551.60;240.38;;;;;;;;;;4962511;28;20039;-60
2023/04/19 01:24:14;;;;;;;564.20;231.90;;;;;;;;;;4963951;28;20438;-59
2023/04/19 01:26:39;;;;;;;526.38;237.68;;;;;;;;;;4964247;28;20104;-60
2023/04/19 01:29:04;;;;;;;499.88;233.80;;;;;;;;;;4964727;28;20070;-60
2023/04/19 01:31:30;;;;;;;589.83;251.48;;;;;;;;;;4962761;28;20053;-57
2023/04/19 01:33:55;;;;;;;584.13;234.77;;;;;;;;;;4963813;28;20031;-59
2023/04/19 01:36:20;;;;;;;543.20;251.48;;;;;;;;;;4967261;28;20068;-57
2023/04/19 01:38:48;;;;;;;548.47;246.18;;;;;;;;;;4967019;28;20041;-57
2023/04/19 01:41:14;;;;;;;536.08;233.82;;;;;;;;;;4966992;28;20408;-59
2023/04/19 01:43:39;;;;;;;647.83;237.02;;;;;;;;;;4965869;28;20487;-59
2023/04/19 01:46:04;;;;;;;491.58;232.27;;;;;;;;;;4966171;28;20058;-61
2023/04/19 01:48:30;;;;;;;481.90;221.82;;;;;;;;;;4966713;28;20023;-60
2023/04/19 01:50:55;;;;;;;606.00;258.55;;;;;;;;;;4966613;28;20069;-60
2023/04/19 01:53:20;;;;;;;524.85;225.90;;;;;;;;;;4966210;28;20049;-59
2023/04/19 01:55:45;;;;;;;541.15;240.38;;;;;;;;;;4964571;28;20163;-58
2023/04/19 01:58:11;;;;;;;507.38;230.60;;;;;;;;;;4965629;28;20019;-57
2023/04/19 02:00:36;;;;;;;532.28;238.63;;;;;;;;;;4968174;28;20095;-58
2023/04/19 02:03:01;;;;;;;567.05;247.60;;;;;;;;;;4966640;28;20026;-57
2023/04/19 02:05:26;;;;;;;517.53;240.27;;;;;;;;;;4967346;28;20373;-58
2023/04/19 02:07:52;;;;;;;517.05;235.57;;;;;;;;;;4966739;28;20022;-59
2023/04/19 02:10:17;;;;;;;582.00;237.53;;;;;;;;;;4964698;28;20030;-57
2023/04/19 02:12:42;;;;;;;532.40;233.20;;;;;;;;;;4967246;28;20292;-57
2023/04/19 02:15:07;;;;;;;502.15;234.82;;;;;;;;;;4963498;28;20269;-58
2023/04/19 02:17:33;;;;;;;543.30;236.30;;;;;;;;;;4965724;28;20062;-58
2023/04/19 02:19:58;;;;;;;488.55;229.85;;;;;;;;;;4966222;28;20027;-58
2023/04/19 02:22:23;;;;;;;561.80;233.68;;;;;;;;;;4965911;28;20387;-57
2023/04/19 02:24:49;;;;;;;491.23;226.13;;;;;;;;;;4967702;28;20022;-57
2023/04/19 02:27:14;;;;;;;509.05;236.63;;;;;;;;;;4966752;28;20057;-57
2023/04/19 02:29:40;;;;;;;554.33;229.48;;;;;;;;;;4966366;28;20030;-58
2023/04/19 02:32:05;;;;;;;503.35;237.23;;;;;;;;;;4965224;28;20525;-59
2023/04/19 02:34:34;;;;;;;523.67;237.75;;;;;;;;;;4963004;28;20015;-60
2023/04/19 02:36:59;;;;;;;531.20;233.75;;;;;;;;;;4965475;28;20038;-57
2023/04/19 02:39:24;;;;;;;524.75;228.85;;;;;;;;;;4967765;28;20022;-58
2023/04/19 02:41:50;;;;;;;542.17;242.77;;;;;;;;;;4965756;28;20634;-57
2023/04/19 02:44:15;;;;;;;539.30;241.88;;;;;;;;;;4966036;28;20615;-57
2023/04/19 02:46:40;;;;;;;501.65;244.15;;;;;;;;;;4966345;28;20065;-58
2023/04/19 02:49:05;;;;;;;532.03;227.35;;;;;;;;;;4964644;28;20029;-58
2023/04/19 02:51:31;;;;;;;515.20;244.82;;;;;;;;;;4964692;28;20057;-58
2023/04/19 02:53:56;;;;;;;552.72;236.07;;;;;;;;;;4966397;28;20030;-58
2023/04/19 02:56:21;;;;;;;536.70;232.25;;;;;;;;;;4966722;28;20475;-59
2023/04/19 02:58:46;;;;;;;510.35;232.00;;;;;;;;;;4965419;28;20069;-59
2023/04/19 03:01:12;;;;;;;528.33;235.85;;;;;;;;;;4965147;28;20065;-57
2023/04/19 03:03:37;;;;;;;548.10;232.48;;;;;;;;;;4967527;28;20027;-56
2023/04/19 03:06:02;;;;;;;496.13;231.50;;;;;;;;;;4965613;28;20228;-58
2023/04/19 03:08:28;;;;;;;539.53;235.73;;;;;;;;;;4967017;28;20100;-58
2023/04/19 03:10:53;;;;;;;518.33;239.60;;;;;;;;;;4965905;28;20031;-59
2023/04/19 03:13:19;;;;;;;521.25;240.13;;;;;;;;;;4966130;28;20060;-59
2023/04/19 03:15:44;;;;;;;514.00;237.38;;;;;;;;;;4962720;28;20039;-59
2023/04/19 03:18:09;;;;;;;527.10;254.15;;;;;;;;;;4966057;28;20109;-59
2023/04/19 03:20:34;;;;;;;560.90;261.05;;;;;;;;;;4965164;28;20050;-60
2023/04/19 03:23:00;;;;;;;498.90;259.80;;;;;;;;;;4965607;28;20026;-59
2023/04/19 03:25:25;;;;;;;545.88;263.50;;;;;;;;;;4965023;28;20018;-58
2023/04/19 03:27:51;;;;;;;589.20;269.58;;;;;;;;;;4966474;28;20027;-60
2023/04/19 03:30:16;;;;;;;552.38;272.77;;;;;;;;;;4966369;28;20023;-58
2023/04/19 03:32:42;;;;;;;569.63;264.23;;;;;;;;;;4964686;28;20038;-57
2023/04/19 03:35:08;;;;;;;558.50;262.55;;;;;;;;;;4963961;28;20026;-57
2023/04/19 03:37:33;;;;;;;524.80;263.52;;;;;;;;;;4965747;28;20567;-57
2023/04/19 03:39:58;;;;;;;569.42;277.80;;;;;;;;;;4966725;28;20937;-59
2023/04/19 03:42:23;;;;;;;553.63;282.77;;;;;;;;;;4964889;28;20078;-58
2023/04/19 03:44:49;;;;;;;525.50;272.80;;;;;;;;;;4961514;28;20293;-57
2023/04/19 03:47:14;;;;;;;597.08;289.42;;;;;;;;;;4963225;28;20177;-59
2023/04/19 03:49:39;;;;;;;540.97;280.92;;;;;;;;;;4964802;28;20041;-59
2023/04/19 03:52:05;;;;;;;537.17;278.48;;;;;;;;;;4964168;28;20044;-57
2023/04/19 03:54:30;;;;;;;532.78;278.88;;;;;;;;;;4962535;28;20116;-58
2023/04/19 03:56:55;;;;;;;576.22;287.10;;;;;;;;;;4963569;28;20113;-59
2023/04/19 03:59:21;;;;;;;599.22;289.73;;;;;;;;;;4966021;28;20217;-59
2023/04/19 04:01:46;;;;;;;554.35;293.77;;;;;;;;;;4964609;28;20039;-59
2023/04/19 04:04:11;;;;;;;549.85;287.55;;;;;;;;;;4964569;28;20760;-59
2023/04/19 04:06:37;;;;;;;562.72;270.20;;;;;;;;;;4967036;28;20034;-59
2023/04/19 04:09:02;;;;;;;507.75;268.55;;;;;;;;;;4964821;28;20018;-59
2023/04/19 04:11:28;;;;;;;539.95;273.27;;;;;;;;;;4965006;28;20047;-59
2023/04/19 04:13:54;;;;;;;661.97;298.33;;;;;;;;;;4964019;28;20146;-58
2023/04/19 04:16:20;;;;;;;516.58;257.98;;;;;;;;;;4971650;28;20080;-57
2023/04/19 04:18:45;;;;;;;564.25;267.10;;;;;;;;;;4965094;28;20031;-58
2023/04/19 04:21:10;;;;;;;526.67;271.58;;;;;;;;;;4965673;28;20049;-60
2023/04/19 04:23:36;;;;;;;579.75;283.77;;;;;;;;;;4964519;28;20544;-57
2023/04/19 04:26:03;;;;;;;560.70;277.15;;;;;;;;;;4964863;28;20037;-58
2023/04/19 04:28:29;;;;;;;501.23;275.13;;;;;;;;;;4964925;28;20033;-60
2023/04/19 04:30:56;;;;;;;566.20;285.98;;;;;;;;;;4963362;28;20054;-57
2023/04/19 04:33:25;;;;;;;551.08;285.00;;;;;;;;;;4965103;28;20015;-59
2023/04/19 04:35:51;;;;;;;524.10;276.38;;;;;;;;;;4961718;28;20822;-61
2023/04/19 04:38:16;;;;;;;576.67;295.05;;;;;;;;;;4962895;28;20038;-58
2023/04/19 04:40:41;;;;;;;559.28;303.45;;;;;;;;;;4963423;28;20074;-58
2023/04/19 04:43:06;;;;;;;549.13;298.67;;;;;;;;;;4964411;28;20065;-60
2023/04/19 04:45:32;;;;;;;571.38;295.33;;;;;;;;;;4961710;28;20043;-57
2023/04/19 04:47:58;;;;;;;545.55;284.88;;;;;;;;;;4963159;28;20042;-59
2023/04/19 04:50:23;;;;;;;597.50;298.10;;;;;;;;;;4962980;28;21426;-59
2023/04/19 04:52:48;;;;;;;554.63;290.38;;;;;;;;;;4963073;28;20621;-60
2023/04/19 04:55:13;;;;;;;531.50;286.95;;;;;;;;;;4961147;28;20015;-60
2023/04/19 04:57:39;;;;;;;610.05;310.08;;;;;;;;;;4963499;28;20111;-58
2023/04/19 05:00:05;;;;;;;560.20;288.27;;;;;;;;;;4963970;28;20049;-60
2023/04/19 05:02:31;;;;;;;549.08;304.05;;;;;;;;;;4962695;28;20039;-60
2023/04/19 05:04:56;;;;;;;576.38;312.48;;;;;;;;;;4962507;28;20123;-61
2023/04/19 05:07:21;;;;;;;588.15;304.83;;;;;;;;;;4963931;28;20121;-60
2023/04/19 05:09:46;;;;;;;611.70;296.03;;;;;;;;;;4967841;28;20033;-59
2023/04/19 05:12:12;;;;;;;590.70;309.17;;;;;;;;;;4965928;28;20277;-61
2023/04/19 05:14:37;;;;;;;539.70;300.40;;;;;;;;;;4968068;28;20297;-58
2023/04/19 05:17:02;;;;;;;571.28;287.77;;;;;;;;;;4967803;28;20393;-59
2023/04/19 05:19:27;;;;;;;548.25;291.33;;;;;;;;;;4968391;28;20996;-60
2023/04/19 05:21:52;;;;;;;587.45;292.38;;;;;;;;;;4967878;28;20424;-60
2023/04/19 05:24:18;;;;;;;624.45;300.50;;;;;;;;;;4966066;28;20030;-60
2023/04/19 05:26:43;;;;;;;591.53;323.15;;;;;;;;;;4967423;28;20037;-60
2023/04/19 05:29:08;;;;;;;552.85;262.60;;;;;;;;;;4966685;28;20046;-60
2023/04/19 05:31:33;;;;;;;530.67;258.95;;;;;;;;;;4969476;28;20099;-60
2023/04/19 05:33:59;;;;;;;525.10;262.13;;;;;;;;;;4965390;28;20027;-59
2023/04/19 05:36:24;;;;;;;556.73;251.10;;;;;;;;;;4966331;28;20281;-59
2023/04/19 05:38:49;;;;;;;532.40;243.63;;;;;;;;;;4967448;28;20272;-59
2023/04/19 05:41:14;;;;;;;513.42;254.40;;;;;;;;;;4966949;28;20040;-59
2023/04/19 05:43:40;;;;;;;658.65;271.52;;;;;;;;;;4966930;28;20060;-58
2023/04/19 05:46:05;;;;;;;498.00;233.23;;;;;;;;;;4966969;28;20715;-58
2023/04/19 05:48:30;;;;;;;502.03;216.67;;;;;;;;;;4966368;28;20204;-60
2023/04/19 05:50:56;;;;;;;484.63;204.55;;;;;;;;;;4965531;28;20277;-59
2023/04/19 05:53:22;;;;;;;509.95;214.05;;;;;;;;;;4967365;28;20027;-57
2023/04/19 05:55:49;;;;;;;560.03;235.05;;;;;;;;;;4965648;28;20038;-60
2023/04/19 05:58:15;;;;;;;528.33;228.50;;;;;;;;;;4966522;28;20583;-58
2023/04/19 06:00:41;;;;;;;503.40;242.82;;;;;;;;;;4966652;28;20038;-59
2023/04/19 06:03:06;;;;;;;533.45;242.98;;;;;;;;;;4968099;28;20039;-58
2023/04/19 06:05:32;;;;;;;526.20;239.07;;;;;;;;;;4967477;28;20042;-58
2023/04/19 06:07:57;;;;;;;486.00;226.05;;;;;;;;;;4967146;28;20258;-57
2023/04/19 06:10:22;;;;;;;551.63;252.57;;;;;;;;;;4966201;28;20026;-59
2023/04/19 06:12:48;;;;;;;515.28;236.88;;;;;;;;;;4966088;28;20571;-59
2023/04/19 06:15:13;;;;;;;550.67;242.73;;;;;;;;;;4964647;28;20033;-59
2023/04/19 06:17:38;;;;;;;509.02;246.80;;;;;;;;;;4967094;28;20045;-58
2023/04/19 06:20:06;;;;;;;500.95;216.30;;;;;;;;;;4967102;28;20023;-59
2023/04/19 06:22:31;;;;;;;479.05;207.90;;;;;;;;;;4966467;28;20129;-60
2023/04/19 06:24:56;;;;;;;524.42;241.10;;;;;;;;;;4963643;28;20691;-56
2023/04/19 06:27:22;;;;;;;552.90;257.88;;;;;;;;;;4967257;28;20038;-57
2023/04/19 06:29:47;;;;;;;515.05;234.40;;;;;;;;;;4966203;28;20023;-60
2023/04/19 06:32:12;;;;;;;518.67;232.23;;;;;;;;;;4965629;28;20834;-60
2023/04/19 06:34:37;;;;;;;525.45;226.93;;;;;;;;;;4966390;28;21118;-60
2023/04/19 06:37:03;;;;;;;515.78;231.98;;;;;;;;;;4966873;28;20378;-61
2023/04/19 06:39:28;;;;;;;490.70;223.70;;;;;;;;;;4966072;28;20829;-58
2023/04/19 06:41:53;;;;;;;516.97;215.77;;;;;;;;;;4966248;28;20165;-58
2023/04/19 06:44:19;;;;;;;541.40;239.18;;;;;;;;;;4964487;28;20037;-58
2023/04/19 06:46:44;;;;;;;526.72;224.25;;;;;;;;;;4966093;28;20034;-60
2023/04/19 06:49:09;;;;;;;514.85;229.75;;;;;;;;;;4966335;28;20018;-60
2023/04/19 06:51:34;;;;;;;559.38;248.65;;;;;;;;;;4966592;28;20577;-60
2023/04/19 06:54:00;;;;;;;551.63;229.80;;;;;;;;;;4965845;28;20031;-61
2023/04/19 06:56:44;;;;;;;549.28;232.57;;;;;;;;;;4966298;28;20062;-60
2023/04/19 06:59:09;;;;;;;528.58;238.32;;;;;;;;;;4967460;28;20100;-59
2023/04/19 07:01:34;;;;;;;512.05;227.35;;;;;;;;;;4965702;28;20038;-58
2023/04/19 07:04:00;;;;;;;510.70;225.15;;;;;;;;;;4966377;28;20038;-60
2023/04/19 07:06:25;;;;;;;544.60;242.95;;;;;;;;;;4966340;28;20851;-61
2023/04/19 07:08:51;;;;;;;550.53;246.10;;;;;;;;;;4970003;28;20035;-58
2023/04/19 07:11:16;;;;;;;522.58;245.75;;;;;;;;;;4967547;28;20536;-58
2023/04/19 07:13:41;;;;;;;632.92;247.18;;;;;;;;;;4967916;28;20018;-59
2023/04/19 07:16:06;;;;;;;538.60;247.30;;;;;;;;;;4965203;28;20068;-59
2023/04/19 07:18:32;;;;;;;574.30;258.35;;;;;;;;;;4966667;28;20022;-58
2023/04/19 07:20:57;;;;;;;563.80;260.95;;;;;;;;;;4964851;28;20035;-58
2023/04/19 07:23:22;;;;;;;517.77;241.57;;;;;;;;;;4965313;28;20026;-61
2023/04/19 07:25:47;;;;;;;622.57;266.57;;;;;;;;;;4964261;28;20309;-59
2023/04/19 07:28:14;;;;;;;589.50;267.90;;;;;;;;;;4965350;28;20337;-62
2023/04/19 07:30:40;;;;;;;570.03;271.80;;;;;;;;;;4964467;28;20030;-60
2023/04/19 07:33:07;;;;;;;599.10;279.60;;;;;;;;;;4964579;28;20608;-59
2023/04/19 07:35:32;;;;;;;600.15;291.45;;;;;;;;;;4962721;28;20034;-59
2023/04/19 07:37:57;;;;;;;628.80;280.15;;;;;;;;;;4966200;28;20026;-60
2023/04/19 07:40:23;;;;;;;537.00;263.27;;;;;;;;;;4964859;28;20039;-60
2023/04/19 07:42:48;;;;;;;605.20;280.00;;;;;;;;;;4966179;28;20026;-62
2023/04/19 07:45:13;;;;;;;614.42;268.35;;;;;;;;;;4962902;28;20019;-59
2023/04/19 07:47:38;;;;;;;571.45;251.35;;;;;;;;;;4963959;28;20546;-58
2023/04/19 07:50:06;;;;;;;556.97;247.73;;;;;;;;;;4967119;28;20418;-61
2023/04/19 07:52:31;;;;;;;556.58;236.93;;;;;;;;;;4964520;28;20281;-59
2023/04/19 07:54:56;;;;;;;554.28;237.75;;;;;;;;;;4964063;28;20033;-58
2023/04/19 07:57:22;;;;;;;596.67;262.63;;;;;;;;;;4966765;28;20125;-58
2023/04/19 07:59:47;;;;;;;611.47;271.33;;;;;;;;;;4964081;28;20262;-61
2023/04/19 08:02:12;;;;;;;555.88;262.08;;;;;;;;;;4964635;28;20308;-58
2023/04/19 08:04:38;;;;;;;595.17;252.75;;;;;;;;;;4965036;28;20023;-58
2023/04/19 08:07:03;;;;;;;610.22;271.92;;;;;;;;;;4965086;28;20435;-60
2023/04/19 08:09:28;;;;;;;608.15;272.83;;;;;;;;;;4964626;28;20477;-61
2023/04/19 08:11:54;;;;;;;613.55;271.23;;;;;;;;;;4964641;28;20039;-60
2023/04/19 08:14:19;;;;;;;621.20;270.02;;;;;;;;;;4965336;28;20038;-61
2023/04/19 08:16:45;;;;;;;620.30;280.40;;;;;;;;;;4964310;28;20074;-59
2023/04/19 08:19:10;;;;;;;568.93;269.20;;;;;;;;;;4965692;28;20018;-58
2023/04/19 08:21:35;;;;;;;618.22;291.27;;;;;;;;;;4964414;28;20275;-62
2023/04/19 08:24:01;;;;;;;665.22;295.95;;;;;;;;;;4964186;28;20291;-61
2023/04/19 08:26:26;;;;;;;608.47;279.57;;;;;;;;;;4963923;28;20035;-61
2023/04/19 08:28:51;;;;;;;617.43;284.80;;;;;;;;;;4965484;28;20254;-60
2023/04/19 08:31:18;;;;;;;639.87;289.33;;;;;;;;;;4965283;28;20323;-61
2023/04/19 08:33:43;;;;;;;660.22;281.98;;;;;;;;;;4962992;28;20250;-59
2023/04/19 08:36:09;;;;;;;627.20;304.40;;;;;;;;;;4963257;28;20096;-58
2023/04/19 08:38:34;;;;;;;620.70;277.45;;;;;;;;;;4961550;28;20382;-60
2023/04/19 08:41:00;;;;;;;616.33;275.90;;;;;;;;;;4965655;28;20521;-58
2023/04/19 08:43:32;;;;;;;684.60;284.85;;;;;;;;;;4963495;28;20171;-59
2023/04/19 08:45:57;;;;;;;636.35;313.90;;;;;;;;;;4962842;28;20093;-59
2023/04/19 08:48:23;;;;;;;583.33;250.68;;;;;;;;;;4965377;28;20648;-60
2023/04/19 08:50:49;;;;;;;556.35;247.25;;;;;;;;;;4962935;28;20408;-58
2023/04/19 08:53:15;;;;;;;597.67;282.20;;;;;;;;;;4965283;28;20551;-60
2023/04/19 08:55:42;;;;;;;602.90;280.77;;;;;;;;;;4962533;28;20118;-60
2023/04/19 08:58:07;;;;;;;617.33;291.52;;;;;;;;;;4964293;28;20027;-59
2023/04/19 09:00:33;;;;;;;509.55;238.85;;;;;;;;;;4963525;28;20030;-58
2023/04/19 09:02:58;;;;;;;601.55;253.88;;;;;;;;;;4962972;28;20027;-60
2023/04/19 09:05:23;;;;;;;564.95;246.43;;;;;;;;;;4963781;28;20483;-58
2023/04/19 09:07:49;;;;;;;595.92;266.90;;;;;;;;;;4965981;28;20025;-57
2023/04/19 09:10:16;;;;;;;574.17;254.50;;;;;;;;;;4964718;28;20103;-58
2023/04/19 09:12:41;;;;;;;551.53;256.90;;;;;;;;;;4965338;28;20031;-60
2023/04/19 09:15:08;;;;;;;592.88;264.58;;;;;;;;;;4964078;28;20587;-60
2023/04/19 09:17:33;;;;;;;549.17;249.98;;;;;;;;;;4963356;28;20127;-60
2023/04/19 09:19:59;;;;;;;572.92;253.48;;;;;;;;;;4965273;28;20130;-59
2023/04/19 09:22:24;;;;;;;569.53;256.00;;;;;;;;;;4961528;28;20070;-59
2023/04/19 09:24:50;;;;;;;541.80;247.48;;;;;;;;;;4963143;28;20049;-59
2023/04/19 09:27:23;;;;;;;543.92;253.75;;;;;;;;;;4963523;28;20058;-59
2023/04/19 09:29:53;;;;;;;561.20;258.63;;;;;;;;;;4965416;28;20508;-57
2023/04/19 09:32:18;;;;;;;585.42;273.30;;;;;;;;;;4962772;28;20042;-57
2023/04/19 09:34:50;;;;;;;579.10;252.70;;;;;;;;;;4961611;28;20125;-61
2023/04/19 09:37:15;;;;;;;520.00;227.65;;;;;;;;;;4964579;28;20042;-60
2023/04/19 09:39:41;;;;;;;542.92;234.48;;;;;;;;;;4961827;28;20035;-60
2023/04/19 09:42:06;;;;;;;533.67;243.65;;;;;;;;;;4963336;28;20039;-60
2023/04/19 09:44:33;;;;;;;556.00;261.90;;;;;;;;;;4962226;28;20022;-59
2023/04/19 09:46:59;;;;;;;500.35;216.45;;;;;;;;;;4964143;28;20188;-59
2023/04/19 09:49:25;;;;;;;541.28;241.18;;;;;;;;;;4962076;28;20706;-58
2023/04/19 09:51:51;;;;;;;579.97;237.32;;;;;;;;;;4963242;28;20047;-57
2023/04/19 09:54:17;;;;;;;564.58;251.45;;;;;;;;;;4963468;28;20026;-59
2023/04/19 09:56:43;;;;;;;570.47;257.35;;;;;;;;;;4968111;28;20492;-60
2023/04/19 09:59:11;;;;;;;535.60;208.68;;;;;;;;;;4967103;28;20037;-58
2023/04/19 10:01:37;;;;;;;511.20;214.35;;;;;;;;;;4966832;28;20038;-60
2023/04/19 10:04:05;;;;;;;554.07;213.10;;;;;;;;;;4965858;28;20030;-58
2023/04/19 10:06:31;;;;;;;493.02;190.77;;;;;;;;;;4967799;28;20124;-58
2023/04/19 10:08:57;;;;;;;528.70;213.70;;;;;;;;;;4965881;28;20023;-61
2023/04/19 10:11:25;;;;;;;594.28;239.18;;;;;;;;;;4969399;28;20157;-61
2023/04/19 10:13:53;;;;;;;596.22;214.30;;;;;;;;;;4965220;28;20027;-57
2023/04/19 10:16:18;;;;;;;507.05;187.93;;;;;;;;;;4968237;28;20507;-58
2023/04/19 10:18:44;;;;;;;503.92;193.95;;;;;;;;;;4968951;28;20027;-59
2023/04/19 10:21:09;;;;;;;534.47;211.90;;;;;;;;;;4966256;28;20455;-60
2023/04/19 10:23:36;;;;;;;619.00;214.23;;;;;;;;;;4967026;28;20640;-61
2023/04/19 10:26:01;;;;;;;517.55;201.02;;;;;;;;;;4965374;28;20095;-62
2023/04/19 10:28:32;;;;;;;527.37;198.83;;;;;;;;;;4967431;28;20026;-60
2023/04/19 10:30:59;;;;;;;542.95;190.32;;;;;;;;;;4966387;28;20261;-62
2023/04/19 10:33:30;;;;;;;597.45;218.10;;;;;;;;;;4967259;28;20357;-61
2023/04/19 10:35:56;;;;;;;602.90;222.10;;;;;;;;;;4964986;28;20568;-61
2023/04/19 10:38:35;;;;;;;571.75;212.95;;;;;;;;;;4965846;28;20040;-60
2023/04/19 10:41:02;;;;;;;599.65;218.05;;;;;;;;;;4965087;28;20035;-61
2023/04/19 10:43:32;;;;;;;581.08;204.20;;;;;;;;;;4965165;28;20022;-61
2023/04/19 10:46:00;;;;;;;603.55;217.90;;;;;;;;;;4964853;28;20968;-58
2023/04/19 10:48:26;;;;;;;555.15;203.32;;;;;;;;;;4966209;28;20030;-59
2023/04/19 10:50:57;;;;;;;538.35;197.60;;;;;;;;;;4966574;28;20042;-62
2023/04/19 10:53:41;;;;;;;653.40;220.20;;;;;;;;;;4966444;28;20034;-59
2023/04/19 10:56:06;;;;;;;561.65;206.32;;;;;;;;;;4966019;28;20045;-61
2023/04/19 10:58:52;;;;;;;603.83;211.63;;;;;;;;;;4964577;28;20035;-60
2023/04/19 11:01:39;;;;;;;607.03;218.48;;;;;;;;;;4963503;28;20309;-60
2023/04/19 11:04:04;;;;;;;698.08;239.23;;;;;;;;;;4964134;28;20026;-59
2023/04/19 11:06:30;;;;;;;648.85;216.10;;;;;;;;;;4966376;28;20049;-59
2023/04/19 11:08:56;;;;;;;626.92;231.90;;;;;;;;;;4964379;28;20127;-58
2023/04/19 11:11:21;;;;;;;638.90;230.20;;;;;;;;;;4966196;28;20041;-59
2023/04/19 11:13:46;;;;;;;818.03;257.17;;;;;;;;;;4963397;28;20130;-61
2023/04/19 11:16:12;;;;;;;556.47;207.63;;;;;;;;;;4968030;28;20297;-59
2023/04/19 11:18:37;;;;;;;590.67;215.40;;;;;;;;;;4964849;28;20022;-58
2023/04/19 11:21:02;;;;;;;610.38;220.18;;;;;;;;;;4964881;28;20050;-61
2023/04/19 11:23:28;;;;;;;603.90;216.88;;;;;;;;;;4965544;28;20084;-60
2023/04/19 11:25:54;;;;;;;634.60;232.33;;;;;;;;;;4965699;28;20066;-59
2023/04/19 11:28:20;;;;;;;639.15;249.40;;;;;;;;;;4965408;28;20261;-61
2023/04/19 11:30:46;;;;;;;604.67;245.60;;;;;;;;;;4964288;28;20046;-61
2023/04/19 11:33:11;;;;;;;688.00;231.55;;;;;;;;;;4966744;28;20018;-60
2023/04/19 11:35:37;;;;;;;602.63;243.02;;;;;;;;;;4962493;28;20061;-60
2023/04/19 11:38:04;;;;;;;613.75;229.15;;;;;;;;;;4964262;28;20018;-60
2023/04/19 11:40:29;;;;;;;632.58;230.32;;;;;;;;;;4966482;28;20035;-59
2023/04/19 11:42:55;;;;;;;610.53;227.43;;;;;;;;;;4965433;28;20076;-61
2023/04/19 11:45:28;;;;;;;568.13;206.13;;;;;;;;;;4961898;28;20034;-61
2023/04/19 11:47:53;;;;;;;584.55;213.90;;;;;;;;;;4964676;28;20031;-58
2023/04/19 11:50:34;;;;;;;615.55;230.25;;;;;;;;;;4964877;28;20027;-60
2023/04/19 11:53:08;;;;;;;607.50;227.43;;;;;;;;;;4965327;28;20030;-58
2023/04/19 11:55:33;;;;;;;643.72;234.85;;;;;;;;;;4963227;28;20126;-58
2023/04/19 11:57:58;;;;;;;598.70;226.05;;;;;;;;;;4966229;28;20069;-58
2023/04/19 12:00:27;;;;;;;610.20;227.17;;;;;;;;;;4963065;28;20034;-59
2023/04/19 12:02:53;;;;;;;612.33;233.57;;;;;;;;;;4965150;28;20364;-61
2023/04/19 12:05:18;;;;;;;579.90;235.50;;;;;;;;;;4963690;28;20180;-59
2023/04/19 12:07:56;;;;;;;617.40;239.70;;;;;;;;;;4965320;28;20019;-59
2023/04/19 12:10:21;;;;;;;603.35;238.98;;;;;;;;;;4963652;28;20615;-59
2023/04/19 12:12:47;;;;;;;611.65;237.25;;;;;;;;;;4966337;28;20525;-61
2023/04/19 12:15:12;;;;;;;624.38;247.68;;;;;;;;;;4965495;28;20033;-60
2023/04/19 12:17:54;;;;;;;613.90;237.88;;;;;;;;;;4964068;28;20056;-60
2023/04/19 12:20:30;;;;;;;609.78;236.13;;;;;;;;;;4963556;28;20096;-59
2023/04/19 12:22:55;;;;;;;605.10;231.13;;;;;;;;;;4965271;28;20034;-58
2023/04/19 12:25:20;;;;;;;607.47;227.93;;;;;;;;;;4960883;28;20022;-58
2023/04/19 12:27:46;;;;;;;602.72;235.73;;;;;;;;;;4965869;28;20277;-58
2023/04/19 12:30:11;;;;;;;602.67;231.83;;;;;;;;;;4962678;28;20717;-58
2023/04/19 12:32:36;;;;;;;623.90;250.20;;;;;;;;;;4965272;28;21081;-58
2023/04/19 12:35:01;;;;;;;652.13;251.30;;;;;;;;;;4964204;28;20030;-60
2023/04/19 12:37:27;;;;;;;657.58;243.70;;;;;;;;;;4964002;28;20270;-58
2023/04/19 12:39:52;;;;;;;580.37;237.53;;;;;;;;;;4963865;28;20483;-58
2023/04/19 12:42:17;;;;;;;575.00;225.07;;;;;;;;;;4963556;28;20300;-58
2023/04/19 12:44:42;;;;;;;631.95;236.18;;;;;;;;;;4964421;28;20317;-57
2023/04/19 12:47:08;;;;;;;622.95;256.85;;;;;;;;;;4964584;28;20034;-59
2023/04/19 12:49:33;;;;;;;632.03;259.58;;;;;;;;;;4964230;28;20031;-59
2023/04/19 12:51:58;;;;;;;645.30;244.32;;;;;;;;;;4964858;28;20042;-60
2023/04/19 12:54:23;;;;;;;666.53;275.53;;;;;;;;;;4963537;28;20084;-59
2023/04/19 12:56:48;;;;;;;639.97;246.27;;;;;;;;;;4964539;28;20262;-59
2023/04/19 12:59:14;;;;;;;547.40;222.63;;;;;;;;;;4964572;28;20030;-60
2023/04/19 13:01:39;;;;;;;565.17;227.00;;;;;;;;;;4964244;28;20291;-58
2023/04/19 13:04:06;;;;;;;669.22;246.52;;;;;;;;;;4963861;28;20111;-60
2023/04/19 13:06:31;;;;;;;669.22;262.55;;;;;;;;;;4963552;28;20043;-60
2023/04/19 13:08:57;;;;;;;671.53;270.25;;;;;;;;;;4966159;28;20026;-61
2023/04/19 13:11:22;;;;;;;648.42;267.05;;;;;;;;;;4964444;28;20126;-60
2023/04/19 13:13:48;;;;;;;704.17;257.27;;;;;;;;;;4962472;28;20484;-59
2023/04/19 13:16:13;;;;;;;635.65;254.80;;;;;;;;;;4962994;28;20773;-58
2023/04/19 13:18:38;;;;;;;610.65;242.73;;;;;;;;;;4963046;28;20027;-59
2023/04/19 13:21:04;;;;;;;607.28;269.27;;;;;;;;;;4963938;28;20062;-57
2023/04/19 13:23:29;;;;;;;700.10;248.82;;;;;;;;;;4963062;28;20431;-59
2023/04/19 13:25:54;;;;;;;626.45;257.33;;;;;;;;;;4964149;28;20042;-58
2023/04/19 13:28:19;;;;;;;641.83;256.33;;;;;;;;;;4966918;28;20035;-59
2023/04/19 13:30:45;;;;;;;612.75;256.40;;;;;;;;;;4967585;28;20039;-60
2023/04/19 13:33:10;;;;;;;617.05;263.23;;;;;;;;;;4969561;28;20034;-59
2023/04/19 13:35:35;;;;;;;640.10;266.50;;;;;;;;;;4964578;28;20749;-61
2023/04/19 13:38:00;;;;;;;654.03;259.43;;;;;;;;;;4967717;28;20794;-57
2023/04/19 13:40:26;;;;;;;629.22;259.48;;;;;;;;;;4967016;28;21077;-60
2023/04/19 13:42:53;;;;;;;633.30;255.27;;;;;;;;;;4966230;28;20546;-60
2023/04/19 13:45:18;;;;;;;567.72;222.88;;;;;;;;;;4966556;28;20254;-59